sensor_id;sensor_type;location;lat;lon;timestamp;pressure;altitude;pressure_sealevel;temperature;humidity
12172;BME280;6149;52.418;13.668;2023-11-21T00:00:38;100320.94;;;8.23;100.00
12172;BME280;6149;52.418;13.668;2023-11-21T00:03:05;100317.69;;;8.18;100.00
12172;BME280;6149;52.418;13.668;2023-11-21T00:05:32;100331.09;;;8.14;100.00
12172;BME280;6149;52.418;13.668;2023-11-21T00:08:00;100332.59;;;8.00;100.00
12172;BME280;6149;52.418;13.668;2023-11-21T00:10:26;100324.25;;;7.91;100.00
12172;BME280;6149;52.418;13.668;2023-11-21T00:12:53;100332.38;;;7.86;100.00
12172;BME280;6149;52.418;13.668;2023-11-21T00:15:20;100339.34;;;7.87;100.00
12172;BME280;6149;52.418;13.668;2023-11-21T00:17:47;100342.81;;;7.88;100.00
12172;BME280;6149;52.418;13.668;2023-11-21T00:20:14;100354.41;;;7.84;100.00
12172;BME280;6149;52.418;13.668;2023-11-21T00:22:41;100350.38;;;7.95;100.00
12172;BME280;6149;52.418;13.668;2023-11-21T00:25:09;100354.56;;;7.81;100.00
12172;BME280;6149;52.418;13.668;2023-11-21T00:27:36;100351.38;;;7.74;100.00
12172;BME280;6149;52.418;13.668;2023-11-21T00:30:03;100358.50;;;7.72;100.00
12172;BME280;6149;52.418;13.668;2023-11-21T00:32:31;100365.72;;;7.67;100.00
12172;BME280;6149;52.418;13.668;2023-11-21T00:34:59;100362.03;;;7.71;100.00
12172;BME280;6149;52.418;13.668;2023-11-21T00:37:25;100365.78;;;7.65;100.00
12172;BME280;6149;52.418;13.668;2023-11-21T00:39:52;100367.13;;;7.55;100.00
12172;BME280;6149;52.418;13.668;2023-11-21T00:42:20;100357.59;;;7.53;100.00
12172;BME280;6149;52.418;13.668;2023-11-21T00:44:48;100365.41;;;7.54;100.00
12172;BME280;6149;52.418;13.668;2023-11-21T00:47:14;100374.44;;;7.49;100.00
12172;BME280;6149;52.418;13.668;2023-11-21T00:49:41;100369.56;;;7.60;100.00
12172;BME280;6149;52.418;13.668;2023-11-21T00:52:08;100378.38;;;7.59;100.00
12172;BME280;6149;52.418;13.668;2023-11-21T00:54:35;100385.03;;;7.47;100.00
12172;BME280;6149;52.418;13.668;2023-11-21T00:57:02;100383.59;;;7.40;100.00
12172;BME280;6149;52.418;13.668;2023-11-21T00:59:33;100386.50;;;7.34;100.00
12172;BME280;6149;52.418;13.668;2023-11-21T01:01:59;100386.69;;;7.29;100.00
12172;BME280;6149;52.418;13.668;2023-11-21T01:04:27;100389.72;;;7.20;100.00
12172;BME280;6149;52.418;13.668;2023-11-21T01:06:54;100396.88;;;7.17;100.00
12172;BME280;6149;52.418;13.668;2023-11-21T01:09:20;100402.97;;;7.17;100.00
12172;BME280;6149;52.418;13.668;2023-11-21T01:11:47;100403.84;;;7.18;100.00
12172;BME280;6149;52.418;13.668;2023-11-21T01:14:13;100404.03;;;7.13;100.00
12172;BME280;6149;52.418;13.668;2023-11-21T01:16:41;100406.00;;;7.08;100.00
12172;BME280;6149;52.418;13.668;2023-11-21T01:19:08;100409.59;;;7.05;100.00
12172;BME280;6149;52.418;13.668;2023-11-21T01:21:35;100413.19;;;7.04;100.00
12172;BME280;6149;52.418;13.668;2023-11-21T01:24:02;100411.47;;;7.03;100.00
12172;BME280;6149;52.418;13.668;2023-11-21T01:26:30;100419.47;;;7.00;100.00
12172;BME280;6149;52.418;13.668;2023-11-21T01:28:57;100413.09;;;7.06;100.00
12172;BME280;6149;52.418;13.668;2023-11-21T01:31:24;100415.16;;;7.20;100.00
12172;BME280;6149;52.418;13.668;2023-11-21T01:33:55;100419.34;;;7.03;100.00
12172;BME280;6149;52.418;13.668;2023-11-21T01:36:22;100425.53;;;7.02;100.00
12172;BME280;6149;52.418;13.668;2023-11-21T01:38:49;100417.03;;;6.96;100.00
12172;BME280;6149;52.418;13.668;2023-11-21T01:41:15;100429.00;;;7.03;100.00
12172;BME280;6149;52.418;13.668;2023-11-21T01:43:42;100440.94;;;6.90;100.00
12172;BME280;6149;52.418;13.668;2023-11-21T01:46:09;100444.44;;;6.90;100.00
12172;BME280;6149;52.418;13.668;2023-11-21T01:48:36;100442.16;;;6.81;100.00
12172;BME280;6149;52.418;13.668;2023-11-21T01:51:05;100451.88;;;6.79;100.00
12172;BME280;6149;52.418;13.668;2023-11-21T01:53:33;100454.81;;;6.71;100.00
12172;BME280;6149;52.418;13.668;2023-11-21T01:56:02;100458.78;;;6.60;100.00
12172;BME280;6149;52.418;13.668;2023-11-21T01:58:30;100460.31;;;6.65;100.00
12172;BME280;6149;52.418;13.668;2023-11-21T02:00:57;100454.56;;;6.56;100.00
12172;BME280;6149;52.418;13.668;2023-11-21T02:03:24;100462.44;;;6.56;100.00
12172;BME280;6149;52.418;13.668;2023-11-21T02:05:51;100456.47;;;6.52;100.00
12172;BME280;6149;52.418;13.668;2023-11-21T02:08:20;100461.78;;;6.51;100.00
12172;BME280;6149;52.418;13.668;2023-11-21T02:10:46;100461.88;;;6.48;100.00
12172;BME280;6149;52.418;13.668;2023-11-21T02:13:13;100462.91;;;6.44;100.00
12172;BME280;6149;52.418;13.668;2023-11-21T02:15:41;100462.22;;;6.38;100.00
12172;BME280;6149;52.418;13.668;2023-11-21T02:18:08;100469.31;;;6.36;100.00
12172;BME280;6149;52.418;13.668;2023-11-21T02:20:36;100479.06;;;6.33;100.00
12172;BME280;6149;52.418;13.668;2023-11-21T02:23:05;100478.09;;;6.35;100.00
12172;BME280;6149;52.418;13.668;2023-11-21T02:25:33;100482.50;;;6.35;100.00
12172;BME280;6149;52.418;13.668;2023-11-21T02:28:03;100479.38;;;6.25;100.00
12172;BME280;6149;52.418;13.668;2023-11-21T02:30:32;100480.47;;;6.20;100.00
12172;BME280;6149;52.418;13.668;2023-11-21T02:32:58;100484.13;;;6.16;100.00
12172;BME280;6149;52.418;13.668;2023-11-21T02:35:26;100480.84;;;6.09;100.00
12172;BME280;6149;52.418;13.668;2023-11-21T02:37:53;100484.50;;;6.05;100.00
12172;BME280;6149;52.418;13.668;2023-11-21T02:40:21;100486.28;;;6.04;100.00
12172;BME280;6149;52.418;13.668;2023-11-21T02:42:49;100484.44;;;6.07;100.00
12172;BME280;6149;52.418;13.668;2023-11-21T02:45:18;100488.91;;;6.04;100.00
12172;BME280;6149;52.418;13.668;2023-11-21T02:47:46;100489.22;;;5.95;100.00
12172;BME280;6149;52.418;13.668;2023-11-21T02:50:14;100497.03;;;5.97;100.00
12172;BME280;6149;52.418;13.668;2023-11-21T02:52:41;100506.94;;;5.90;100.00
12172;BME280;6149;52.418;13.668;2023-11-21T02:55:08;100510.53;;;5.86;100.00
12172;BME280;6149;52.418;13.668;2023-11-21T02:57:36;100510.47;;;5.88;100.00
12172;BME280;6149;52.418;13.668;2023-11-21T03:00:04;100509.78;;;5.83;100.00
12172;BME280;6149;52.418;13.668;2023-11-21T03:02:33;100509.94;;;5.78;100.00
12172;BME280;6149;52.418;13.668;2023-11-21T03:05:01;100517.00;;;5.76;100.00
12172;BME280;6149;52.418;13.668;2023-11-21T03:07:30;100508.16;;;5.79;100.00
12172;BME280;6149;52.418;13.668;2023-11-21T03:09:56;100512.81;;;5.70;100.00
12172;BME280;6149;52.418;13.668;2023-11-21T03:12:23;100509.41;;;5.68;100.00
12172;BME280;6149;52.418;13.668;2023-11-21T03:14:51;100518.00;;;5.72;100.00
12172;BME280;6149;52.418;13.668;2023-11-21T03:17:19;100526.78;;;5.71;100.00
12172;BME280;6149;52.418;13.668;2023-11-21T03:19:46;100519.19;;;5.63;100.00
12172;BME280;6149;52.418;13.668;2023-11-21T03:22:12;100527.16;;;5.60;100.00
12172;BME280;6149;52.418;13.668;2023-11-21T03:24:39;100524.22;;;5.69;100.00
12172;BME280;6149;52.418;13.668;2023-11-21T03:27:06;100516.25;;;5.72;100.00
12172;BME280;6149;52.418;13.668;2023-11-21T03:29:33;100530.53;;;5.64;100.00
12172;BME280;6149;52.418;13.668;2023-11-21T03:32:01;100530.31;;;5.70;100.00
12172;BME280;6149;52.418;13.668;2023-11-21T03:34:28;100542.59;;;5.69;100.00
12172;BME280;6149;52.418;13.668;2023-11-21T03:36:54;100549.19;;;5.56;100.00
12172;BME280;6149;52.418;13.668;2023-11-21T03:39:21;100551.78;;;5.56;100.00
12172;BME280;6149;52.418;13.668;2023-11-21T03:41:48;100557.03;;;5.56;100.00
12172;BME280;6149;52.418;13.668;2023-11-21T03:44:17;100552.75;;;5.54;100.00
12172;BME280;6149;52.418;13.668;2023-11-21T03:46:44;100554.47;;;5.55;100.00
12172;BME280;6149;52.418;13.668;2023-11-21T03:49:11;100559.66;;;5.56;100.00
12172;BME280;6149;52.418;13.668;2023-11-21T03:51:38;100559.97;;;5.47;100.00
12172;BME280;6149;52.418;13.668;2023-11-21T03:54:05;100565.22;;;5.47;100.00
12172;BME280;6149;52.418;13.668;2023-11-21T03:56:32;100569.59;;;5.47;100.00
12172;BME280;6149;52.418;13.668;2023-11-21T03:58:58;100572.41;;;5.41;100.00
12172;BME280;6149;52.418;13.668;2023-11-21T04:01:25;100580.41;;;5.36;100.00
12172;BME280;6149;52.418;13.668;2023-11-21T04:03:52;100579.72;;;5.31;100.00
12172;BME280;6149;52.418;13.668;2023-11-21T04:06:20;100583.22;;;5.30;100.00
12172;BME280;6149;52.418;13.668;2023-11-21T04:08:46;100580.81;;;5.24;100.00
12172;BME280;6149;52.418;13.668;2023-11-21T04:11:13;100583.59;;;5.19;100.00
12172;BME280;6149;52.418;13.668;2023-11-21T04:13:39;100588.16;;;5.13;100.00
12172;BME280;6149;52.418;13.668;2023-11-21T04:16:06;100583.78;;;5.13;100.00
12172;BME280;6149;52.418;13.668;2023-11-21T04:18:33;100589.06;;;5.12;100.00
12172;BME280;6149;52.418;13.668;2023-11-21T04:21:00;100582.03;;;5.14;100.00
12172;BME280;6149;52.418;13.668;2023-11-21T04:23:29;100582.06;;;5.12;100.00
12172;BME280;6149;52.418;13.668;2023-11-21T04:25:56;100589.13;;;5.10;100.00
12172;BME280;6149;52.418;13.668;2023-11-21T04:28:24;100587.50;;;5.06;100.00
12172;BME280;6149;52.418;13.668;2023-11-21T04:30:50;100592.88;;;5.01;100.00
12172;BME280;6149;52.418;13.668;2023-11-21T04:33:17;100596.34;;;5.02;100.00
12172;BME280;6149;52.418;13.668;2023-11-21T04:35:43;100593.59;;;5.07;100.00
12172;BME280;6149;52.418;13.668;2023-11-21T04:38:10;100600.69;;;5.03;100.00
12172;BME280;6149;52.418;13.668;2023-11-21T04:40:38;100605.97;;;5.01;100.00
12172;BME280;6149;52.418;13.668;2023-11-21T04:43:05;100609.50;;;5.00;100.00
12172;BME280;6149;52.418;13.668;2023-11-21T04:45:32;100620.88;;;4.99;100.00
12172;BME280;6149;52.418;13.668;2023-11-21T04:47:58;100620.13;;;4.96;100.00
12172;BME280;6149;52.418;13.668;2023-11-21T04:50:25;100623.69;;;4.93;100.00
12172;BME280;6149;52.418;13.668;2023-11-21T04:52:52;100626.22;;;4.96;100.00
12172;BME280;6149;52.418;13.668;2023-11-21T04:55:19;100635.31;;;4.83;100.00
12172;BME280;6149;52.418;13.668;2023-11-21T04:57:47;100626.56;;;4.84;100.00
12172;BME280;6149;52.418;13.668;2023-11-21T05:00:14;100629.38;;;4.78;100.00
12172;BME280;6149;52.418;13.668;2023-11-21T05:02:42;100633.00;;;4.74;100.00
12172;BME280;6149;52.418;13.668;2023-11-21T05:05:09;100627.75;;;4.74;100.00
12172;BME280;6149;52.418;13.668;2023-11-21T05:07:38;100645.22;;;4.74;100.00
12172;BME280;6149;52.418;13.668;2023-11-21T05:10:06;100644.41;;;4.72;100.00
12172;BME280;6149;52.418;13.668;2023-11-21T05:12:36;100648.78;;;4.71;100.00
12172;BME280;6149;52.418;13.668;2023-11-21T05:15:06;100647.03;;;4.72;100.00
12172;BME280;6149;52.418;13.668;2023-11-21T05:17:35;100651.41;;;4.71;100.00
12172;BME280;6149;52.418;13.668;2023-11-21T05:20:02;100654.03;;;4.71;100.00
12172;BME280;6149;52.418;13.668;2023-11-21T05:22:33;100655.88;;;4.67;100.00
12172;BME280;6149;52.418;13.668;2023-11-21T05:25:00;100668.13;;;4.67;100.00
12172;BME280;6149;52.418;13.668;2023-11-21T05:27:28;100671.75;;;4.61;100.00
12172;BME280;6149;52.418;13.668;2023-11-21T05:29:55;100668.31;;;4.59;100.00
12172;BME280;6149;52.418;13.668;2023-11-21T05:32:23;100674.47;;;4.58;100.00
12172;BME280;6149;52.418;13.668;2023-11-21T05:34:50;100672.84;;;4.53;100.00
12172;BME280;6149;52.418;13.668;2023-11-21T05:37:16;100672.97;;;4.48;100.00
12172;BME280;6149;52.418;13.668;2023-11-21T05:39:43;100685.22;;;4.48;100.00
12172;BME280;6149;52.418;13.668;2023-11-21T05:42:10;100689.63;;;4.46;100.00
12172;BME280;6149;52.418;13.668;2023-11-21T05:44:36;100683.50;;;4.47;100.00
12172;BME280;6149;52.418;13.668;2023-11-21T05:47:03;100699.19;;;4.47;100.00
12172;BME280;6149;52.418;13.668;2023-11-21T05:49:36;100700.09;;;4.46;100.00
12172;BME280;6149;52.418;13.668;2023-11-21T05:52:03;100705.19;;;4.52;100.00
12172;BME280;6149;52.418;13.668;2023-11-21T05:54:31;100706.03;;;4.52;100.00
12172;BME280;6149;52.418;13.668;2023-11-21T05:56:57;100709.78;;;4.44;100.00
12172;BME280;6149;52.418;13.668;2023-11-21T05:59:24;100714.13;;;4.45;100.00
12172;BME280;6149;52.418;13.668;2023-11-21T06:01:51;100716.81;;;4.42;100.00
12172;BME280;6149;52.418;13.668;2023-11-21T06:04:20;100717.59;;;4.45;100.00
12172;BME280;6149;52.418;13.668;2023-11-21T06:06:51;100718.44;;;4.46;100.00
12172;BME280;6149;52.418;13.668;2023-11-21T06:09:19;100721.91;;;4.46;100.00
12172;BME280;6149;52.418;13.668;2023-11-21T06:11:45;100725.31;;;4.50;100.00
12172;BME280;6149;52.418;13.668;2023-11-21T06:14:12;100727.97;;;4.48;100.00
12172;BME280;6149;52.418;13.668;2023-11-21T06:16:38;100722.38;;;4.62;100.00
12172;BME280;6149;52.418;13.668;2023-11-21T06:19:06;100736.53;;;4.55;100.00
12172;BME280;6149;52.418;13.668;2023-11-21T06:21:32;100741.91;;;4.49;100.00
12172;BME280;6149;52.418;13.668;2023-11-21T06:24:01;100741.19;;;4.44;100.00
12172;BME280;6149;52.418;13.668;2023-11-21T06:26:28;100749.81;;;4.47;100.00
12172;BME280;6149;52.418;13.668;2023-11-21T06:28:57;100739.44;;;4.44;100.00
12172;BME280;6149;52.418;13.668;2023-11-21T06:31:23;100753.41;;;4.45;100.00
12172;BME280;6149;52.418;13.668;2023-11-21T06:33:50;100762.16;;;4.44;100.00
12172;BME280;6149;52.418;13.668;2023-11-21T06:36:18;100758.66;;;4.43;100.00
12172;BME280;6149;52.418;13.668;2023-11-21T06:38:45;100762.19;;;4.42;100.00
12172;BME280;6149;52.418;13.668;2023-11-21T06:41:13;100772.44;;;4.50;100.00
12172;BME280;6149;52.418;13.668;2023-11-21T06:43:41;100777.84;;;4.44;100.00
12172;BME280;6149;52.418;13.668;2023-11-21T06:46:10;100774.38;;;4.43;100.00
12172;BME280;6149;52.418;13.668;2023-11-21T06:48:42;100781.38;;;4.43;100.00
12172;BME280;6149;52.418;13.668;2023-11-21T06:51:09;100784.06;;;4.40;100.00
12172;BME280;6149;52.418;13.668;2023-11-21T06:53:36;100782.00;;;4.51;100.00
12172;BME280;6149;52.418;13.668;2023-11-21T06:56:04;100778.81;;;4.40;100.00
12172;BME280;6149;52.418;13.668;2023-11-21T06:58:33;100782.25;;;4.42;100.00
12172;BME280;6149;52.418;13.668;2023-11-21T07:01:00;100795.34;;;4.42;100.00
12172;BME280;6149;52.418;13.668;2023-11-21T07:03:28;100796.25;;;4.41;100.00
12172;BME280;6149;52.418;13.668;2023-11-21T07:05:58;100802.31;;;4.43;100.00
12172;BME280;6149;52.418;13.668;2023-11-21T07:08:24;100806.75;;;4.39;100.00
12172;BME280;6149;52.418;13.668;2023-11-21T07:10:52;100797.25;;;4.35;100.00
12172;BME280;6149;52.418;13.668;2023-11-21T07:13:45;100805.25;;;4.29;100.00
12172;BME280;6149;52.418;13.668;2023-11-21T07:16:12;100807.81;;;4.32;100.00
12172;BME280;6149;52.418;13.668;2023-11-21T07:18:40;100818.31;;;4.30;100.00
12172;BME280;6149;52.418;13.668;2023-11-21T07:21:06;100822.66;;;4.31;100.00
12172;BME280;6149;52.418;13.668;2023-11-21T07:23:34;100826.16;;;4.30;100.00
12172;BME280;6149;52.418;13.668;2023-11-21T07:26:03;100825.34;;;4.28;100.00
12172;BME280;6149;52.418;13.668;2023-11-21T07:28:34;100828.59;;;4.38;100.00
12172;BME280;6149;52.418;13.668;2023-11-21T07:31:02;100833.00;;;4.36;100.00
12172;BME280;6149;52.418;13.668;2023-11-21T07:33:28;100833.97;;;4.32;100.00
12172;BME280;6149;52.418;13.668;2023-11-21T07:35:56;100834.84;;;4.32;100.00
12172;BME280;6149;52.418;13.668;2023-11-21T07:38:23;100837.44;;;4.32;100.00
12172;BME280;6149;52.418;13.668;2023-11-21T07:40:49;100842.63;;;4.35;100.00
12172;BME280;6149;52.418;13.668;2023-11-21T07:43:16;100840.03;;;4.34;100.00
12172;BME280;6149;52.418;13.668;2023-11-21T07:45:44;100842.00;;;4.24;100.00
12172;BME280;6149;52.418;13.668;2023-11-21T07:48:12;100843.78;;;4.22;100.00
12172;BME280;6149;52.418;13.668;2023-11-21T07:50:40;100844.69;;;4.21;100.00
12172;BME280;6149;52.418;13.668;2023-11-21T07:53:07;100847.38;;;4.18;100.00
12172;BME280;6149;52.418;13.668;2023-11-21T07:55:33;100846.44;;;4.21;100.00
12172;BME280;6149;52.418;13.668;2023-11-21T07:58:03;100845.59;;;4.20;100.00
12172;BME280;6149;52.418;13.668;2023-11-21T08:00:29;100851.78;;;4.16;100.00
12172;BME280;6149;52.418;13.668;2023-11-21T08:02:57;100858.66;;;4.20;100.00
12172;BME280;6149;52.418;13.668;2023-11-21T08:05:25;100865.75;;;4.15;100.00
12172;BME280;6149;52.418;13.668;2023-11-21T08:07:51;100866.44;;;4.23;100.00
12172;BME280;6149;52.418;13.668;2023-11-21T08:10:18;100868.19;;;4.24;100.00
12172;BME280;6149;52.418;13.668;2023-11-21T08:12:46;100870.00;;;4.21;100.00
12172;BME280;6149;52.418;13.668;2023-11-21T08:15:13;100869.13;;;4.20;100.00
12172;BME280;6149;52.418;13.668;2023-11-21T08:17:40;100875.19;;;4.22;100.00
12172;BME280;6149;52.418;13.668;2023-11-21T08:20:07;100878.63;;;4.24;100.00
12172;BME280;6149;52.418;13.668;2023-11-21T08:22:40;100878.63;;;4.24;100.00
12172;BME280;6149;52.418;13.668;2023-11-21T08:25:07;100882.84;;;4.31;100.00
12172;BME280;6149;52.418;13.668;2023-11-21T08:27:34;100890.88;;;4.24;100.00
12172;BME280;6149;52.418;13.668;2023-11-21T08:30:03;100890.88;;;4.24;100.00
12172;BME280;6149;52.418;13.668;2023-11-21T08:32:30;100900.56;;;4.19;100.00
12172;BME280;6149;52.418;13.668;2023-11-21T08:34:59;100906.66;;;4.19;100.00
12172;BME280;6149;52.418;13.668;2023-11-21T08:37:26;100895.19;;;4.26;100.00
12172;BME280;6149;52.418;13.668;2023-11-21T08:39:59;100897.97;;;4.19;100.00
12172;BME280;6149;52.418;13.668;2023-11-21T08:42:25;100904.19;;;4.13;100.00
12172;BME280;6149;52.418;13.668;2023-11-21T08:44:55;100916.38;;;4.14;100.00
12172;BME280;6149;52.418;13.668;2023-11-21T08:47:24;100908.59;;;4.11;100.00
12172;BME280;6149;52.418;13.668;2023-11-21T08:49:52;100896.19;;;4.19;100.00
12172;BME280;6149;52.418;13.668;2023-11-21T08:52:20;100911.97;;;4.16;100.00
12172;BME280;6149;52.418;13.668;2023-11-21T08:54:50;100913.59;;;4.22;100.00
12172;BME280;6149;52.418;13.668;2023-11-21T08:57:22;100921.34;;;4.26;100.00
12172;BME280;6149;52.418;13.668;2023-11-21T08:59:49;100916.34;;;4.16;100.00
12172;BME280;6149;52.418;13.668;2023-11-21T09:02:22;100919.84;;;4.15;100.00
12172;BME280;6149;52.418;13.668;2023-11-21T09:04:49;100931.28;;;4.11;100.00
12172;BME280;6149;52.418;13.668;2023-11-21T09:07:17;100929.66;;;4.07;100.00
12172;BME280;6149;52.418;13.668;2023-11-21T09:09:47;100932.06;;;4.14;100.00
12172;BME280;6149;52.418;13.668;2023-11-21T09:12:14;100937.38;;;4.11;100.00
12172;BME280;6149;52.418;13.668;2023-11-21T09:14:42;100940.78;;;4.15;100.00
12172;BME280;6149;52.418;13.668;2023-11-21T09:17:09;100940.72;;;4.18;100.00
12172;BME280;6149;52.418;13.668;2023-11-21T09:19:38;100947.84;;;4.11;100.00
12172;BME280;6149;52.418;13.668;2023-11-21T09:22:06;100952.34;;;4.06;100.00
12172;BME280;6149;52.418;13.668;2023-11-21T09:24:33;100965.50;;;4.01;100.00
12172;BME280;6149;52.418;13.668;2023-11-21T09:27:01;100965.19;;;4.15;100.00
12172;BME280;6149;52.418;13.668;2023-11-21T09:29:27;100967.25;;;4.01;100.00
12172;BME280;6149;52.418;13.668;2023-11-21T09:31:55;100979.41;;;4.03;100.00
12172;BME280;6149;52.418;13.668;2023-11-21T09:34:26;100974.16;;;4.05;100.00
12172;BME280;6149;52.418;13.668;2023-11-21T09:36:52;100975.06;;;4.04;100.00
12172;BME280;6149;52.418;13.668;2023-11-21T09:39:20;100978.47;;;4.08;100.00
12172;BME280;6149;52.418;13.668;2023-11-21T09:41:50;100981.78;;;4.14;100.00
12172;BME280;6149;52.418;13.668;2023-11-21T09:44:26;100981.81;;;4.13;100.00
12172;BME280;6149;52.418;13.668;2023-11-21T09:47:01;100989.66;;;4.13;100.00
12172;BME280;6149;52.418;13.668;2023-11-21T09:49:28;100981.84;;;4.11;100.00
12172;BME280;6149;52.418;13.668;2023-11-21T09:52:01;100985.50;;;4.04;100.00
12172;BME280;6149;52.418;13.668;2023-11-21T09:54:30;100987.19;;;4.08;100.00
12172;BME280;6149;52.418;13.668;2023-11-21T09:56:59;100995.72;;;4.16;100.00
12172;BME280;6149;52.418;13.668;2023-11-21T09:59:30;100998.59;;;4.04;100.00
12172;BME280;6149;52.418;13.668;2023-11-21T10:02:13;100999.44;;;4.06;100.00
12172;BME280;6149;52.418;13.668;2023-11-21T10:04:41;101005.56;;;4.05;100.00
12172;BME280;6149;52.418;13.668;2023-11-21T10:07:08;101000.34;;;4.03;100.00
12172;BME280;6149;52.418;13.668;2023-11-21T10:09:36;101005.75;;;3.94;100.00
12172;BME280;6149;52.418;13.668;2023-11-21T10:12:06;101001.44;;;3.92;100.00
12172;BME280;6149;52.418;13.668;2023-11-21T10:14:34;101004.13;;;3.89;100.00
12172;BME280;6149;52.418;13.668;2023-11-21T10:17:03;101000.50;;;3.96;100.00
12172;BME280;6149;52.418;13.668;2023-11-21T10:19:35;101002.03;;;4.06;100.00
12172;BME280;6149;52.418;13.668;2023-11-21T10:22:03;101002.88;;;4.08;100.00
12172;BME280;6149;52.418;13.668;2023-11-21T10:24:30;101004.63;;;4.08;100.00
12172;BME280;6149;52.418;13.668;2023-11-21T10:26:58;101001.00;;;4.13;100.00
12172;BME280;6149;52.418;13.668;2023-11-21T10:29:25;101007.16;;;4.11;100.00
12172;BME280;6149;52.418;13.668;2023-11-21T10:31:54;101011.41;;;4.16;100.00
12172;BME280;6149;52.418;13.668;2023-11-21T10:34:24;101013.16;;;4.16;100.00
12172;BME280;6149;52.418;13.668;2023-11-21T10:36:53;101016.72;;;4.12;100.00
12172;BME280;6149;52.418;13.668;2023-11-21T10:39:23;101019.38;;;4.10;100.00
12172;BME280;6149;52.418;13.668;2023-11-21T10:41:55;101021.88;;;4.16;100.00
12172;BME280;6149;52.418;13.668;2023-11-21T10:44:21;101028.91;;;4.14;100.00
12172;BME280;6149;52.418;13.668;2023-11-21T10:46:49;101024.50;;;4.16;100.00
12172;BME280;6149;52.418;13.668;2023-11-21T10:49:17;101024.44;;;4.19;100.00
12172;BME280;6149;52.418;13.668;2023-11-21T10:51:45;101027.78;;;4.26;100.00
12172;BME280;6149;52.418;13.668;2023-11-21T10:54:17;101035.72;;;4.23;100.00
12172;BME280;6149;52.418;13.668;2023-11-21T10:56:50;101031.38;;;4.22;100.00
12172;BME280;6149;52.418;13.668;2023-11-21T10:59:18;101037.53;;;4.19;100.00
12172;BME280;6149;52.418;13.668;2023-11-21T11:01:50;101039.25;;;4.20;100.00
12172;BME280;6149;52.418;13.668;2023-11-21T11:04:19;101040.25;;;4.13;100.00
12172;BME280;6149;52.418;13.668;2023-11-21T11:06:51;101041.19;;;4.09;100.00
12172;BME280;6149;52.418;13.668;2023-11-21T11:09:21;101042.97;;;4.09;100.00
12172;BME280;6149;52.418;13.668;2023-11-21T11:11:48;101038.69;;;4.05;100.00
12172;BME280;6149;52.418;13.668;2023-11-21T11:14:15;101049.19;;;4.03;100.00
12172;BME280;6149;52.418;13.668;2023-11-21T11:16:45;101051.03;;;3.98;100.00
12172;BME280;6149;52.418;13.668;2023-11-21T11:19:11;101056.41;;;3.90;100.00
12172;BME280;6149;52.418;13.668;2023-11-21T11:21:46;101055.38;;;3.99;100.00
12172;BME280;6149;52.418;13.668;2023-11-21T11:24:42;101049.47;;;3.88;100.00
12172;BME280;6149;52.418;13.668;2023-11-21T11:27:22;101048.69;;;3.83;100.00
12172;BME280;6149;52.418;13.668;2023-11-21T11:30:07;101060.88;;;3.84;100.00
12172;BME280;6149;52.418;13.668;2023-11-21T11:32:47;101059.09;;;3.86;100.00
12172;BME280;6149;52.418;13.668;2023-11-21T11:35:25;101056.56;;;3.81;100.00
12172;BME280;6149;52.418;13.668;2023-11-21T11:37:56;101062.69;;;3.80;100.00
12172;BME280;6149;52.418;13.668;2023-11-21T11:40:25;101072.25;;;3.81;100.00
12172;BME280;6149;52.418;13.668;2023-11-21T11:43:06;101075.75;;;3.80;100.00
12172;BME280;6149;52.418;13.668;2023-11-21T11:45:33;101079.16;;;3.85;100.00
12172;BME280;6149;52.418;13.668;2023-11-21T11:48:04;101089.78;;;3.76;100.00
12172;BME280;6149;52.418;13.668;2023-11-21T11:50:31;101083.69;;;3.76;100.00
12172;BME280;6149;52.418;13.668;2023-11-21T11:53:14;101086.31;;;3.76;100.00
12172;BME280;6149;52.418;13.668;2023-11-21T11:55:43;101090.78;;;3.71;100.00
12172;BME280;6149;52.418;13.668;2023-11-21T11:58:10;101094.25;;;3.71;100.00
12172;BME280;6149;52.418;13.668;2023-11-21T12:00:37;101098.63;;;3.71;100.00
12172;BME280;6149;52.418;13.668;2023-11-21T12:03:07;101103.06;;;3.65;100.00
12172;BME280;6149;52.418;13.668;2023-11-21T12:05:35;101107.34;;;3.69;100.00
12172;BME280;6149;52.418;13.668;2023-11-21T12:08:07;101104.78;;;3.66;100.00
12172;BME280;6149;52.418;13.668;2023-11-21T12:10:35;101106.56;;;3.64;100.00
12172;BME280;6149;52.418;13.668;2023-11-21T12:13:06;101110.06;;;3.63;100.00
12172;BME280;6149;52.418;13.668;2023-11-21T12:15:35;101122.28;;;3.63;100.00
12172;BME280;6149;52.418;13.668;2023-11-21T12:18:03;101125.72;;;3.66;100.00
12172;BME280;6149;52.418;13.668;2023-11-21T12:20:31;101125.72;;;3.66;100.00
12172;BME280;6149;52.418;13.668;2023-11-21T12:23:05;101130.22;;;3.57;100.00
12172;BME280;6149;52.418;13.668;2023-11-21T12:25:35;101128.38;;;3.63;100.00
12172;BME280;6149;52.418;13.668;2023-11-21T12:28:02;101131.91;;;3.61;100.00
12172;BME280;6149;52.418;13.668;2023-11-21T12:30:32;101139.81;;;3.56;100.00
12172;BME280;6149;52.418;13.668;2023-11-21T12:33:03;101138.84;;;3.62;100.00
12172;BME280;6149;52.418;13.668;2023-11-21T12:35:34;101150.19;;;3.62;100.00
12172;BME280;6149;52.418;13.668;2023-11-21T12:38:02;101153.69;;;3.61;100.00
12172;BME280;6149;52.418;13.668;2023-11-21T12:40:31;101156.25;;;3.64;100.00
12172;BME280;6149;52.418;13.668;2023-11-21T12:43:00;101150.09;;;3.68;100.00
12172;BME280;6149;52.418;13.668;2023-11-21T12:45:29;101156.97;;;3.73;100.00
12172;BME280;6149;52.418;13.668;2023-11-21T12:47:59;101154.34;;;3.73;100.00
12172;BME280;6149;52.418;13.668;2023-11-21T12:50:29;101162.34;;;3.65;100.00
12172;BME280;6149;52.418;13.668;2023-11-21T12:53:00;101159.72;;;3.65;100.00
12172;BME280;6149;52.418;13.668;2023-11-21T12:55:31;101158.81;;;3.67;100.00